NOZ802 ENGM-ESSA
Flight info
| Callsign | NOZ802 |
|---|---|
| Flight time | 0h 37m |
| Altitude | 27000 |
| Route | MASEV5C MASEV Z183 LEGPO DCT ELTOK ELTOK8P |
| Aircraft | B738/M-SDE2E3FGHIRWXY/LB1 |
Departure
| Time | 2026-05-06 18:46 |
|---|---|
| Airport | Oslo-Gardermoen International Airport (ENGM) |
Arrival
| Time | 2026-05-06 19:23 |
|---|---|
| Airport | Stockholm-Arlanda Airport (ESSA) |
| Time | Latitude | Longitude | Altitude | Speed | Heading |
|---|---|---|---|---|---|
| 2026-05-06 18:27 | 60.19632 | 11.09951 | 684 ft | 0 kts | 106° |
| 2026-05-06 18:34 | 60.19633 | 11.09945 | 684 ft | 3 kts | 106° |
| 2026-05-06 18:35 | 60.19640 | 11.09894 | 678 ft | 4 kts | 106° |
| 2026-05-06 18:35 | 60.19644 | 11.09863 | 682 ft | 1 kts | 106° |
| 2026-05-06 18:38 | 60.19646 | 11.09869 | 681 ft | 1 kts | 67° |
| 2026-05-06 18:38 | 60.19654 | 11.09862 | 679 ft | 1 kts | 316° |
| 2026-05-06 18:38 | 60.19655 | 11.09824 | 681 ft | 3 kts | 275° |
| 2026-05-06 18:39 | 60.19661 | 11.09774 | 684 ft | 4 kts | 301° |
| 2026-05-06 18:39 | 60.19691 | 11.09757 | 683 ft | 5 kts | 6° |
| 2026-05-06 18:39 | 60.19729 | 11.09778 | 683 ft | 7 kts | 16° |
| 2026-05-06 18:40 | 60.19874 | 11.09861 | 682 ft | 16 kts | 16° |
| 2026-05-06 18:40 | 60.19984 | 11.09924 | 684 ft | 16 kts | 15° |
| 2026-05-06 18:40 | 60.20037 | 11.10071 | 685 ft | 15 kts | 105° |
| 2026-05-06 18:40 | 60.20009 | 11.10270 | 679 ft | 14 kts | 105° |
| 2026-05-06 18:41 | 60.19982 | 11.10460 | 678 ft | 14 kts | 106° |
| 2026-05-06 18:41 | 60.19956 | 11.10641 | 684 ft | 13 kts | 106° |
| 2026-05-06 18:41 | 60.19931 | 11.10815 | 683 ft | 13 kts | 106° |
| 2026-05-06 18:41 | 60.19907 | 11.10985 | 680 ft | 12 kts | 106° |
| 2026-05-06 18:42 | 60.19883 | 11.11150 | 682 ft | 12 kts | 105° |
| 2026-05-06 18:42 | 60.19861 | 11.11311 | 682 ft | 9 kts | 105° |
| 2026-05-06 18:42 | 60.19857 | 11.11335 | 681 ft | 1 kts | 106° |
| 2026-05-06 18:42 | 60.19854 | 11.11359 | 681 ft | 4 kts | 106° |
| 2026-05-06 18:43 | 60.19840 | 11.11479 | 683 ft | 11 kts | 86° |
| 2026-05-06 18:43 | 60.19901 | 11.11558 | 684 ft | 11 kts | 16° |
| 2026-05-06 18:43 | 60.19974 | 11.11601 | 685 ft | 11 kts | 16° |
| 2026-05-06 18:43 | 60.20046 | 11.11642 | 683 ft | 11 kts | 15° |
| 2026-05-06 18:44 | 60.20089 | 11.11732 | 685 ft | 11 kts | 96° |
| 2026-05-06 18:44 | 60.20069 | 11.11883 | 680 ft | 11 kts | 106° |
| 2026-05-06 18:44 | 60.20052 | 11.12003 | 682 ft | 8 kts | 105° |
| 2026-05-06 18:44 | 60.20037 | 11.12107 | 681 ft | 7 kts | 105° |
| 2026-05-06 18:45 | 60.20001 | 11.12171 | 686 ft | 10 kts | 174° |
| 2026-05-06 18:45 | 60.19768 | 11.12043 | 685 ft | 70 kts | 196° |
| 2026-05-06 18:45 | 60.19080 | 11.11648 | 683 ft | 133 kts | 196° |
| 2026-05-06 18:45 | 60.18415 | 11.11260 | 700 ft | 165 kts | 197° |
| 2026-05-06 18:46 | 60.16919 | 11.10415 | 1608 ft | 167 kts | 198° |
| 2026-05-06 18:46 | 60.15809 | 11.09801 | 2463 ft | 164 kts | 198° |
| 2026-05-06 18:46 | 60.14702 | 11.09182 | 3216 ft | 168 kts | 197° |
| 2026-05-06 18:46 | 60.13548 | 11.08810 | 3895 ft | 174 kts | 175° |
| 2026-05-06 18:47 | 60.12398 | 11.10008 | 4252 ft | 206 kts | 133° |
| 2026-05-06 18:47 | 60.11451 | 11.12215 | 4629 ft | 222 kts | 132° |
| 2026-05-06 18:47 | 60.10368 | 11.14648 | 4855 ft | 245 kts | 134° |
| 2026-05-06 18:47 | 60.09130 | 11.17271 | 5094 ft | 271 kts | 135° |
| 2026-05-06 18:48 | 60.07923 | 11.20169 | 5961 ft | 272 kts | 120° |
| 2026-05-06 18:48 | 60.07433 | 11.23831 | 6748 ft | 279 kts | 89° |
| 2026-05-06 18:48 | 60.07930 | 11.27574 | 7525 ft | 282 kts | 59° |
| 2026-05-06 18:48 | 60.08899 | 11.30963 | 8358 ft | 284 kts | 71° |
| 2026-05-06 18:49 | 60.09224 | 11.34893 | 9091 ft | 288 kts | 87° |
| 2026-05-06 18:49 | 60.09361 | 11.38912 | 9882 ft | 292 kts | 87° |
| 2026-05-06 18:49 | 60.09595 | 11.43040 | 10311 ft | 309 kts | 83° |
| 2026-05-06 18:49 | 60.09936 | 11.47457 | 10504 ft | 333 kts | 82° |
| 2026-05-06 18:50 | 60.10323 | 11.52191 | 10673 ft | 355 kts | 82° |
| 2026-05-06 18:50 | 60.10727 | 11.57148 | 10835 ft | 375 kts | 82° |
| 2026-05-06 18:50 | 60.11156 | 11.62515 | 11054 ft | 392 kts | 82° |
| 2026-05-06 18:50 | 60.11578 | 11.67895 | 11511 ft | 401 kts | 82° |
| 2026-05-06 18:51 | 60.12007 | 11.73472 | 12101 ft | 406 kts | 82° |
| 2026-05-06 18:51 | 60.12437 | 11.79132 | 12682 ft | 413 kts | 82° |
| 2026-05-06 18:51 | 60.12867 | 11.84865 | 13277 ft | 419 kts | 82° |
| 2026-05-06 18:51 | 60.13300 | 11.90683 | 13866 ft | 425 kts | 83° |
| 2026-05-06 18:52 | 60.13735 | 11.96589 | 14404 ft | 431 kts | 83° |
| 2026-05-06 18:52 | 60.14175 | 12.02576 | 15002 ft | 435 kts | 83° |
| 2026-05-06 18:52 | 60.14615 | 12.08617 | 15583 ft | 440 kts | 83° |
| 2026-05-06 18:52 | 60.15058 | 12.14728 | 16172 ft | 445 kts | 83° |
| 2026-05-06 18:53 | 60.15503 | 12.20912 | 16725 ft | 450 kts | 83° |
| 2026-05-06 18:53 | 60.15950 | 12.27170 | 17281 ft | 456 kts | 83° |
| 2026-05-06 18:53 | 60.16401 | 12.33513 | 17832 ft | 461 kts | 83° |
| 2026-05-06 18:53 | 60.16855 | 12.39923 | 18349 ft | 466 kts | 83° |
| 2026-05-06 18:54 | 60.17309 | 12.46410 | 18789 ft | 473 kts | 83° |
| 2026-05-06 18:54 | 60.17678 | 12.53018 | 19163 ft | 479 kts | 89° |
| 2026-05-06 18:54 | 60.17569 | 12.59686 | 19673 ft | 478 kts | 99° |
| 2026-05-06 18:54 | 60.17139 | 12.66321 | 20195 ft | 480 kts | 101° |
| 2026-05-06 18:55 | 60.16668 | 12.73001 | 20608 ft | 486 kts | 101° |
| 2026-05-06 18:55 | 60.16191 | 12.79743 | 21045 ft | 489 kts | 101° |
| 2026-05-06 18:55 | 60.15720 | 12.86529 | 21530 ft | 493 kts | 101° |
| 2026-05-06 18:55 | 60.15264 | 12.93288 | 21935 ft | 497 kts | 101° |
| 2026-05-06 18:56 | 60.14805 | 13.00189 | 22353 ft | 501 kts | 101° |
| 2026-05-06 18:56 | 60.14346 | 13.07156 | 22764 ft | 505 kts | 101° |
| 2026-05-06 18:56 | 60.13882 | 13.14173 | 23178 ft | 508 kts | 101° |
| 2026-05-06 18:56 | 60.13413 | 13.21235 | 23554 ft | 512 kts | 101° |
| 2026-05-06 18:57 | 60.13098 | 13.25933 | 23766 ft | 514 kts | 101° |
| 2026-05-06 18:57 | 60.12616 | 13.33064 | 24095 ft | 517 kts | 101° |
| 2026-05-06 18:57 | 60.12127 | 13.40234 | 24430 ft | 519 kts | 102° |
| 2026-05-06 18:57 | 60.11633 | 13.47403 | 24827 ft | 518 kts | 102° |
| 2026-05-06 18:58 | 60.11138 | 13.54547 | 25270 ft | 517 kts | 102° |
| 2026-05-06 18:58 | 60.10638 | 13.61695 | 25628 ft | 519 kts | 102° |
| 2026-05-06 18:58 | 60.10129 | 13.68886 | 25923 ft | 521 kts | 103° |
| 2026-05-06 18:58 | 60.09618 | 13.76059 | 26412 ft | 519 kts | 103° |
| 2026-05-06 18:59 | 60.09106 | 13.83212 | 26888 ft | 518 kts | 103° |
| 2026-05-06 18:59 | 60.08587 | 13.90380 | 26910 ft | 522 kts | 103° |
| 2026-05-06 18:59 | 60.08062 | 13.97577 | 26932 ft | 522 kts | 103° |
| 2026-05-06 18:59 | 60.07536 | 14.04748 | 26930 ft | 518 kts | 103° |
| 2026-05-06 19:00 | 60.07012 | 14.11854 | 26916 ft | 516 kts | 103° |
| 2026-05-06 19:00 | 60.06482 | 14.18963 | 26946 ft | 517 kts | 103° |
| 2026-05-06 19:00 | 60.05949 | 14.26045 | 26956 ft | 518 kts | 104° |
| 2026-05-06 19:00 | 60.05409 | 14.33189 | 26944 ft | 519 kts | 104° |
| 2026-05-06 19:01 | 60.04865 | 14.40337 | 26944 ft | 520 kts | 104° |
| 2026-05-06 19:01 | 60.04324 | 14.47396 | 26945 ft | 520 kts | 104° |
| 2026-05-06 19:01 | 60.03769 | 14.54548 | 26948 ft | 521 kts | 104° |
| 2026-05-06 19:01 | 60.03210 | 14.61705 | 26945 ft | 520 kts | 104° |
| 2026-05-06 19:02 | 60.02647 | 14.68852 | 26956 ft | 520 kts | 104° |
| 2026-05-06 19:02 | 60.02083 | 14.75984 | 26923 ft | 520 kts | 104° |
| 2026-05-06 19:02 | 60.01517 | 14.83113 | 26950 ft | 519 kts | 104° |
| 2026-05-06 19:02 | 60.00952 | 14.90227 | 26943 ft | 519 kts | 104° |
| 2026-05-06 19:03 | 60.00382 | 14.97342 | 26947 ft | 518 kts | 104° |
| 2026-05-06 19:03 | 59.99807 | 15.04441 | 26954 ft | 518 kts | 104° |
| 2026-05-06 19:03 | 59.99227 | 15.11545 | 26951 ft | 517 kts | 104° |
| 2026-05-06 19:03 | 59.98638 | 15.18673 | 26175 ft | 523 kts | 104° |
| 2026-05-06 19:04 | 59.98042 | 15.25815 | 25290 ft | 520 kts | 104° |
| 2026-05-06 19:04 | 59.97445 | 15.32929 | 24457 ft | 517 kts | 104° |
| 2026-05-06 19:04 | 59.96853 | 15.39966 | 23737 ft | 510 kts | 104° |
| 2026-05-06 19:04 | 59.96266 | 15.46915 | 22968 ft | 504 kts | 104° |
| 2026-05-06 19:05 | 59.95682 | 15.53774 | 22233 ft | 497 kts | 103° |
| 2026-05-06 19:05 | 59.95106 | 15.60491 | 21545 ft | 490 kts | 103° |
| 2026-05-06 19:05 | 59.94534 | 15.67125 | 20858 ft | 483 kts | 103° |
| 2026-05-06 19:05 | 59.93964 | 15.73679 | 20168 ft | 477 kts | 103° |
| 2026-05-06 19:06 | 59.93396 | 15.80162 | 19485 ft | 471 kts | 102° |
| 2026-05-06 19:06 | 59.92838 | 15.86498 | 18831 ft | 466 kts | 102° |
| 2026-05-06 19:06 | 59.92277 | 15.92822 | 18166 ft | 461 kts | 102° |
| 2026-05-06 19:06 | 59.91723 | 15.99044 | 17419 ft | 455 kts | 102° |
| 2026-05-06 19:07 | 59.91170 | 16.05226 | 16727 ft | 449 kts | 102° |
| 2026-05-06 19:07 | 59.90624 | 16.11291 | 16103 ft | 441 kts | 102° |
| 2026-05-06 19:07 | 59.90084 | 16.17263 | 15460 ft | 435 kts | 102° |
| 2026-05-06 19:07 | 59.89554 | 16.23098 | 14808 ft | 422 kts | 102° |
| 2026-05-06 19:08 | 59.89039 | 16.28760 | 14193 ft | 409 kts | 102° |
| 2026-05-06 19:08 | 59.88536 | 16.34254 | 13565 ft | 397 kts | 102° |
| 2026-05-06 19:08 | 59.88049 | 16.39560 | 12963 ft | 383 kts | 102° |
| 2026-05-06 19:08 | 59.87576 | 16.44685 | 12404 ft | 370 kts | 102° |
| 2026-05-06 19:09 | 59.87115 | 16.49646 | 11866 ft | 359 kts | 102° |
| 2026-05-06 19:09 | 59.86664 | 16.54474 | 11345 ft | 353 kts | 102° |
| 2026-05-06 19:09 | 59.86221 | 16.59193 | 11254 ft | 340 kts | 102° |
| 2026-05-06 19:09 | 59.85794 | 16.63726 | 11197 ft | 326 kts | 102° |
| 2026-05-06 19:10 | 59.85380 | 16.68103 | 10948 ft | 325 kts | 102° |
| 2026-05-06 19:10 | 59.84957 | 16.72543 | 10964 ft | 322 kts | 102° |
| 2026-05-06 19:10 | 59.84544 | 16.76868 | 10963 ft | 322 kts | 102° |
| 2026-05-06 19:10 | 59.84125 | 16.81225 | 10957 ft | 321 kts | 102° |
| 2026-05-06 19:11 | 59.83706 | 16.85583 | 10965 ft | 321 kts | 102° |
| 2026-05-06 19:11 | 59.83287 | 16.89931 | 10966 ft | 321 kts | 102° |
| 2026-05-06 19:11 | 59.82866 | 16.94289 | 10965 ft | 321 kts | 102° |
| 2026-05-06 19:11 | 59.82466 | 16.98636 | 10967 ft | 321 kts | 97° |
| 2026-05-06 19:12 | 59.82530 | 17.03081 | 10978 ft | 321 kts | 81° |
| 2026-05-06 19:12 | 59.82859 | 17.07516 | 10477 ft | 334 kts | 81° |
| 2026-05-06 19:12 | 59.83152 | 17.12121 | 10032 ft | 336 kts | 85° |
| 2026-05-06 19:12 | 59.83296 | 17.16734 | 9700 ft | 331 kts | 86° |
| 2026-05-06 19:13 | 59.83398 | 17.21263 | 9437 ft | 325 kts | 87° |
| 2026-05-06 19:13 | 59.83494 | 17.25702 | 9149 ft | 319 kts | 87° |
| 2026-05-06 19:13 | 59.83587 | 17.30067 | 8871 ft | 313 kts | 87° |
| 2026-05-06 19:13 | 59.83678 | 17.34352 | 8602 ft | 308 kts | 87° |
| 2026-05-06 19:14 | 59.83765 | 17.38578 | 8330 ft | 303 kts | 87° |
| 2026-05-06 19:14 | 59.83849 | 17.42732 | 8063 ft | 298 kts | 87° |
| 2026-05-06 19:14 | 59.83929 | 17.46813 | 7799 ft | 294 kts | 87° |
| 2026-05-06 19:14 | 59.84008 | 17.50845 | 7535 ft | 290 kts | 87° |
| 2026-05-06 19:15 | 59.84085 | 17.54826 | 7274 ft | 286 kts | 87° |
| 2026-05-06 19:15 | 59.84161 | 17.58752 | 7013 ft | 282 kts | 87° |
| 2026-05-06 19:15 | 59.84234 | 17.62627 | 6748 ft | 279 kts | 87° |
| 2026-05-06 19:15 | 59.84306 | 17.66455 | 6503 ft | 276 kts | 87° |
| 2026-05-06 19:16 | 59.84377 | 17.70206 | 6224 ft | 268 kts | 87° |
| 2026-05-06 19:16 | 59.84447 | 17.73846 | 5963 ft | 260 kts | 87° |
| 2026-05-06 19:16 | 59.84519 | 17.77401 | 5686 ft | 254 kts | 88° |
| 2026-05-06 19:16 | 59.84599 | 17.80883 | 5377 ft | 250 kts | 87° |
| 2026-05-06 19:17 | 59.84687 | 17.84311 | 5040 ft | 246 kts | 87° |
| 2026-05-06 19:17 | 59.84780 | 17.87681 | 4743 ft | 241 kts | 88° |
| 2026-05-06 19:17 | 59.84877 | 17.90918 | 4581 ft | 229 kts | 88° |
| 2026-05-06 19:17 | 59.84961 | 17.94027 | 4237 ft | 226 kts | 95° |
| 2026-05-06 19:18 | 59.84576 | 17.96981 | 3901 ft | 219 kts | 118° |
| 2026-05-06 19:18 | 59.83721 | 17.99414 | 3598 ft | 212 kts | 138° |
| 2026-05-06 19:18 | 59.82543 | 18.01030 | 3348 ft | 201 kts | 161° |
| 2026-05-06 19:18 | 59.81222 | 18.01632 | 3101 ft | 190 kts | 179° |
| 2026-05-06 19:19 | 59.79937 | 18.01375 | 2854 ft | 182 kts | 189° |
| 2026-05-06 19:19 | 59.78713 | 18.00921 | 2622 ft | 176 kts | 189° |
| 2026-05-06 19:19 | 59.77537 | 18.00483 | 2488 ft | 166 kts | 188° |
| 2026-05-06 19:19 | 59.76411 | 18.00072 | 2535 ft | 164 kts | 188° |
| 2026-05-06 19:20 | 59.75264 | 17.99655 | 2295 ft | 168 kts | 188° |
| 2026-05-06 19:20 | 59.74125 | 17.99241 | 2061 ft | 165 kts | 188° |
| 2026-05-06 19:20 | 59.73016 | 17.98838 | 1842 ft | 159 kts | 188° |
| 2026-05-06 19:20 | 59.71942 | 17.98448 | 1621 ft | 155 kts | 188° |
| 2026-05-06 19:21 | 59.70874 | 17.98061 | 1411 ft | 156 kts | 188° |
| 2026-05-06 19:21 | 59.69833 | 17.97682 | 1220 ft | 145 kts | 188° |
| 2026-05-06 19:21 | 59.68850 | 17.97326 | 984 ft | 143 kts | 187° |
| 2026-05-06 19:21 | 59.67880 | 17.96977 | 788 ft | 141 kts | 186° |
| 2026-05-06 19:22 | 59.66906 | 17.96654 | 584 ft | 144 kts | 187° |
| 2026-05-06 19:22 | 59.65906 | 17.96251 | 355 ft | 146 kts | 187° |
| 2026-05-06 19:22 | 59.64908 | 17.95898 | 154 ft | 145 kts | 187° |
| 2026-05-06 19:22 | 59.63989 | 17.95569 | 112 ft | 119 kts | 190° |
| 2026-05-06 19:23 | 59.63326 | 17.95327 | 122 ft | 53 kts | 191° |
| 2026-05-06 19:23 | 59.63076 | 17.95210 | 132 ft | 35 kts | 201° |
| 2026-05-06 19:23 | 59.62887 | 17.94962 | 136 ft | 29 kts | 219° |
| 2026-05-06 19:23 | 59.62919 | 17.94770 | 135 ft | 21 kts | 9° |
| 2026-05-06 19:24 | 59.63063 | 17.94822 | 128 ft | 22 kts | 11° |
| 2026-05-06 19:24 | 59.63231 | 17.94883 | 125 ft | 27 kts | 10° |
| 2026-05-06 19:24 | 59.63440 | 17.94958 | 119 ft | 33 kts | 10° |
| 2026-05-06 19:24 | 59.63678 | 17.95046 | 111 ft | 36 kts | 10° |
| 2026-05-06 19:25 | 59.63917 | 17.95132 | 108 ft | 34 kts | 10° |
| 2026-05-06 19:25 | 59.64143 | 17.95219 | 106 ft | 32 kts | 12° |
| 2026-05-06 19:25 | 59.64302 | 17.95272 | 105 ft | 20 kts | 10° |
| 2026-05-06 19:25 | 59.64443 | 17.95323 | 104 ft | 22 kts | 10° |
| 2026-05-06 19:26 | 59.64594 | 17.95378 | 104 ft | 22 kts | 10° |
| 2026-05-06 19:26 | 59.64741 | 17.95432 | 105 ft | 21 kts | 9° |
| 2026-05-06 19:26 | 59.64853 | 17.95473 | 106 ft | 15 kts | 11° |
| 2026-05-06 19:26 | 59.64982 | 17.95517 | 110 ft | 25 kts | 4° |
| 2026-05-06 19:27 | 59.65182 | 17.95443 | 119 ft | 32 kts | 346° |
| 2026-05-06 19:27 | 59.65381 | 17.95339 | 127 ft | 27 kts | 345° |
| 2026-05-06 19:27 | 59.65555 | 17.95245 | 126 ft | 25 kts | 345° |
| 2026-05-06 19:27 | 59.65709 | 17.95158 | 126 ft | 19 kts | 333° |
| 2026-05-06 19:28 | 59.65734 | 17.94904 | 124 ft | 23 kts | 256° |
| 2026-05-06 19:28 | 59.65697 | 17.94603 | 122 ft | 22 kts | 256° |
| 2026-05-06 19:28 | 59.65660 | 17.94310 | 122 ft | 22 kts | 256° |
| 2026-05-06 19:28 | 59.65624 | 17.94026 | 118 ft | 22 kts | 256° |
| 2026-05-06 19:29 | 59.65585 | 17.93720 | 111 ft | 23 kts | 256° |
| 2026-05-06 19:29 | 59.65547 | 17.93419 | 111 ft | 22 kts | 256° |
| 2026-05-06 19:29 | 59.65510 | 17.93130 | 111 ft | 21 kts | 256° |
| 2026-05-06 19:29 | 59.65466 | 17.92854 | 110 ft | 21 kts | 250° |
| 2026-05-06 19:30 | 59.65396 | 17.92614 | 110 ft | 21 kts | 229° |
| 2026-05-06 19:30 | 59.65314 | 17.92489 | 110 ft | 12 kts | 193° |
| 2026-05-06 19:30 | 59.65261 | 17.92582 | 111 ft | 11 kts | 110° |
| 2026-05-06 19:30 | 59.65240 | 17.92698 | 110 ft | 7 kts | 116° |
| 2026-05-06 19:31 | 59.65197 | 17.92716 | 111 ft | 5 kts | 190° |
| 2026-05-06 19:31 | 59.65169 | 17.92706 | 111 ft | 3 kts | 189° |
| 2026-05-06 19:31 | 59.65147 | 17.92699 | 111 ft | 0 kts | 190° |